FOOL

Details ICAO FOOL (LBV)
Name Leon M Ba
Region Gabon
Timezone Africa/Libreville (UTC+1.0)
Plans Departing 246
Arriving 246
Stats Elevation 39 ft / 12 m (AMSL)
Location 0.458616° 9.412250°
Runways 1
Magnetic Variation 1.878° W
Sunrise 2018-05-26 05:16:33 UTC / 2018-05-26 06:16:33 Local
Sunset 2018-05-26 17:25:06 UTC / 2018-05-26 18:25:06 Local
Advertisement - Login to hide

Runways

ID Width Length Bearing (true) Bearing (mag) Surface Threshold Offset Overrun Length
16 148 ft / 45 m 9,889 ft / 3,014 m 154.19° 156.07° Asphalt 0 ft / 0 m 192 ft / 59 m
34 148 ft / 45 m 9,889 ft / 3,014 m 334.19° 336.07° Asphalt 0 ft / 0 m 209 ft / 64 m

Approach Navaids

Runway Type Ident Frequency Range Bearing (true) Bearing (mag) Slope Elevation
16 Localiser LB 109.50 MHz 18 nm / 33 km 155.78° 157.65° - 39 ft / 12 m (AMSL)
16 Glidescope LB 109.50 MHz 10 nm / 19 km 154.19° 156.07° 3.00° 54 ft / 16 m (AMSL)
16 DME LB 109.50 MHz 18 nm / 33 km - - - 39 ft / 12 m (AMSL)

Map

Weather


0- 5 10 15 20 25 30 35+ Temperature / ° C

Clouds and Precipitation
Forecast for 2018-05-26 12:00 UTC. Updated 2 hours ago

Ground ~20,000 ft ~40,000 ft Winds

METAR

FOOL 261230Z 21007KT 180V250 9999 FEW013 29/23 Q1010 NOSIG

TAF

TAF FOOL 261100Z 2612/2718 20008KT 9999 SCT014 FEW020CB TEMPO 2616/2620 TS PROB30 TEMPO 2704/2710 3500 TSRA BKN006 FEW016CB OVC023

Frequencies

Tower 118.70 MHz TWR
Warning: Do not use this data for real-world aviation or navigation. No guarantee of current accuracy is given.